Time;durP1;ratioP1;P1;durP2;ratioP2;P2;SDS_P1;SDS_P2;PMS_P1;PMS_P2;Temp;Humidity;BMP_temperature;BMP_pressure;BME280_temperature;BME280_humidity;BME280_pressure;Samples;Min_cycle;Max_cycle;Signal;HPM_P1;HPM_P2
2023/05/18 00:00:24;;;;;;;4.33;2.43;;;;;;;;;;5074121;28;20517;-64
2023/05/18 00:02:51;;;;;;;8.50;2.50;;;;;;;;;;5073895;28;20517;-64
2023/05/18 00:05:18;;;;;;;2.33;2.13;;;;;;;;;;5073864;28;20518;-64
2023/05/18 00:07:45;;;;;;;7.10;2.83;;;;;;;;;;5073730;28;20434;-64
2023/05/18 00:10:12;;;;;;;4.77;2.23;;;;;;;;;;5073660;28;20429;-64
2023/05/18 00:12:41;;;;;;;3.17;2.30;;;;;;;;;;5073589;28;20546;-64
2023/05/18 00:15:09;;;;;;;4.07;2.40;;;;;;;;;;5073621;28;20513;-64
2023/05/18 00:17:36;;;;;;;6.10;2.40;;;;;;;;;;5073655;28;20459;-64
2023/05/18 00:20:03;;;;;;;3.60;2.80;;;;;;;;;;5073472;28;20479;-64
2023/05/18 00:22:31;;;;;;;3.10;1.90;;;;;;;;;;5073890;28;20464;-64
2023/05/18 00:24:58;;;;;;;6.80;2.87;;;;;;;;;;5073498;28;20456;-64
2023/05/18 00:27:24;;;;;;;3.87;2.13;;;;;;;;;;5073714;28;20448;-64
2023/05/18 00:29:53;;;;;;;5.57;2.00;;;;;;;;;;5073518;28;20431;-64
2023/05/18 00:32:20;;;;;;;4.37;2.10;;;;;;;;;;5073374;28;20542;-64
2023/05/18 00:34:47;;;;;;;4.97;2.40;;;;;;;;;;5073274;28;20500;-64
2023/05/18 00:37:14;;;;;;;3.00;1.77;;;;;;;;;;5073215;28;20450;-64
2023/05/18 00:39:40;;;;;;;4.50;1.67;;;;;;;;;;5072989;28;20510;-64
2023/05/18 00:42:07;;;;;;;3.13;1.93;;;;;;;;;;5073345;28;20514;-64
2023/05/18 00:44:34;;;;;;;6.57;2.33;;;;;;;;;;5073308;28;20517;-64
2023/05/18 00:47:03;;;;;;;4.93;2.23;;;;;;;;;;5073178;28;20543;-64
2023/05/18 00:49:30;;;;;;;3.93;1.90;;;;;;;;;;5072974;28;20976;-64
2023/05/18 00:51:57;;;;;;;5.13;2.00;;;;;;;;;;5073066;28;20456;-64
2023/05/18 00:54:24;;;;;;;5.17;1.80;;;;;;;;;;5072883;28;20483;-64
2023/05/18 00:56:51;;;;;;;5.90;1.80;;;;;;;;;;5073049;28;20548;-64
2023/05/18 00:59:18;;;;;;;4.60;1.53;;;;;;;;;;5072935;28;20454;-64
2023/05/18 01:01:45;;;;;;;3.27;1.53;;;;;;;;;;5072895;28;20454;-64
2023/05/18 01:04:14;;;;;;;3.60;2.03;;;;;;;;;;5072826;28;20807;-64
2023/05/18 01:06:42;;;;;;;2.90;1.67;;;;;;;;;;5072762;28;20499;-64
2023/05/18 01:09:10;;;;;;;2.87;1.50;;;;;;;;;;5072904;28;20539;-64
2023/05/18 01:11:40;;;;;;;1.97;1.50;;;;;;;;;;5072887;28;20462;-64
2023/05/18 01:14:14;;;;;;;7.00;1.67;;;;;;;;;;5072783;28;20802;-64
2023/05/18 01:16:43;;;;;;;7.03;2.33;;;;;;;;;;5072740;28;20462;-64
2023/05/18 01:19:20;;;;;;;4.77;1.87;;;;;;;;;;5071978;28;20804;-64
2023/05/18 01:21:52;;;;;;;2.40;1.83;;;;;;;;;;5072833;28;20461;-64
2023/05/18 01:24:25;;;;;;;3.03;2.03;;;;;;;;;;5072853;28;20444;-64
2023/05/18 01:26:56;;;;;;;3.47;2.10;;;;;;;;;;5072700;28;20452;-64
2023/05/18 01:29:23;;;;;;;10.47;2.20;;;;;;;;;;5072566;28;20478;-64
2023/05/18 01:31:50;;;;;;;4.70;1.80;;;;;;;;;;5072459;28;20424;-64
2023/05/18 01:34:17;;;;;;;3.27;1.63;;;;;;;;;;5072614;28;20505;-64
2023/05/18 01:36:44;;;;;;;4.80;2.00;;;;;;;;;;5072481;28;20484;-64
2023/05/18 01:39:11;;;;;;;6.67;1.73;;;;;;;;;;5072471;28;20506;-64
2023/05/18 01:41:40;;;;;;;5.63;2.00;;;;;;;;;;5072475;28;20517;-64
2023/05/18 01:44:13;;;;;;;3.80;1.87;;;;;;;;;;5072311;28;20857;-64
2023/05/18 01:46:43;;;;;;;4.37;2.03;;;;;;;;;;5072562;28;20494;-64
2023/05/18 01:49:14;;;;;;;3.40;1.90;;;;;;;;;;5072511;28;20450;-64
2023/05/18 01:51:42;;;;;;;5.27;2.00;;;;;;;;;;5072514;28;20461;-64
2023/05/18 01:54:11;;;;;;;2.33;1.40;;;;;;;;;;5072198;28;20471;-64
2023/05/18 01:56:39;;;;;;;3.23;1.67;;;;;;;;;;5072151;28;20890;-64
2023/05/18 01:59:06;;;;;;;3.60;1.80;;;;;;;;;;5072242;28;20444;-64
2023/05/18 02:01:35;;;;;;;5.10;2.40;;;;;;;;;;5072377;28;20448;-64
2023/05/18 02:04:02;;;;;;;3.30;2.10;;;;;;;;;;5072360;28;20456;-64
2023/05/18 02:06:29;;;;;;;4.73;2.03;;;;;;;;;;5072348;28;20481;-64
2023/05/18 02:08:56;;;;;;;5.53;1.87;;;;;;;;;;5072122;28;20424;-64
2023/05/18 02:11:23;;;;;;;5.87;1.93;;;;;;;;;;5072111;28;20509;-64
2023/05/18 02:13:50;;;;;;;4.67;2.00;;;;;;;;;;5072252;28;20454;-64
2023/05/18 02:16:18;;;;;;;3.77;1.87;;;;;;;;;;5072143;28;20942;-64
2023/05/18 02:18:46;;;;;;;5.37;2.67;;;;;;;;;;5072169;28;20453;-64
2023/05/18 02:21:13;;;;;;;3.43;1.37;;;;;;;;;;5072274;28;20429;-64
2023/05/18 02:23:40;;;;;;;3.90;2.00;;;;;;;;;;5071903;28;21019;-64
2023/05/18 02:26:07;;;;;;;9.83;2.03;;;;;;;;;;5071996;28;20452;-64
2023/05/18 02:28:34;;;;;;;3.30;1.63;;;;;;;;;;5072216;28;20911;-64
2023/05/18 02:31:07;;;;;;;4.40;1.53;;;;;;;;;;5072147;28;20428;-64
2023/05/18 02:33:38;;;;;;;6.43;2.97;;;;;;;;;;5075551;28;20429;-64
2023/05/18 02:36:07;;;;;;;3.73;2.40;;;;;;;;;;5075622;28;20787;-64
2023/05/18 02:38:36;;;;;;;3.50;1.83;;;;;;;;;;5075384;28;20418;-64
2023/05/18 02:41:03;;;;;;;2.53;1.63;;;;;;;;;;5075610;28;20425;-64
2023/05/18 02:43:30;;;;;;;11.20;2.23;;;;;;;;;;5075470;28;20454;-64
2023/05/18 02:45:57;;;;;;;4.30;1.40;;;;;;;;;;5075400;28;20451;-64
2023/05/18 02:48:24;;;;;;;8.17;2.20;;;;;;;;;;5075247;28;20525;-64
2023/05/18 02:50:51;;;;;;;2.73;1.37;;;;;;;;;;5075179;28;20419;-64
2023/05/18 02:53:19;;;;;;;5.37;2.00;;;;;;;;;;5075337;28;20532;-64
2023/05/18 02:55:47;;;;;;;5.67;2.27;;;;;;;;;;5074868;28;20992;-64
2023/05/18 02:58:14;;;;;;;2.50;1.60;;;;;;;;;;5075126;28;20430;-64
2023/05/18 03:00:42;;;;;;;4.80;1.70;;;;;;;;;;5075120;28;20427;-64
2023/05/18 03:03:14;;;;;;;5.93;1.50;;;;;;;;;;5074951;28;20993;-64
2023/05/18 03:05:41;;;;;;;8.03;2.17;;;;;;;;;;5074907;28;20935;-64
2023/05/18 03:08:09;;;;;;;4.33;1.50;;;;;;;;;;5075027;28;20476;-64
2023/05/18 03:10:37;;;;;;;5.30;1.60;;;;;;;;;;5075097;28;20797;-64
2023/05/18 03:13:04;;;;;;;2.77;1.53;;;;;;;;;;5074881;28;20989;-64
2023/05/18 03:15:31;;;;;;;6.37;2.00;;;;;;;;;;5074699;28;20675;-64
2023/05/18 03:17:59;;;;;;;6.37;1.70;;;;;;;;;;5074636;28;20422;-64
2023/05/18 03:20:26;;;;;;;4.73;1.60;;;;;;;;;;5074893;28;20453;-64
2023/05/18 03:22:53;;;;;;;7.47;2.63;;;;;;;;;;5074813;28;20517;-64
2023/05/18 03:25:21;;;;;;;5.70;1.73;;;;;;;;;;5074861;28;20520;-64
2023/05/18 03:27:50;;;;;;;2.77;1.70;;;;;;;;;;5074647;28;20798;-64
2023/05/18 03:30:18;;;;;;;4.47;1.70;;;;;;;;;;5074525;28;20523;-64
2023/05/18 03:32:47;;;;;;;3.53;1.50;;;;;;;;;;5074783;28;20589;-64
2023/05/18 03:35:13;;;;;;;5.07;2.27;;;;;;;;;;5074673;28;20455;-64
2023/05/18 03:37:40;;;;;;;3.10;1.83;;;;;;;;;;5074517;28;20458;-64
2023/05/18 03:40:11;;;;;;;3.20;2.00;;;;;;;;;;5074287;28;20966;-64
2023/05/18 03:42:38;;;;;;;3.93;1.80;;;;;;;;;;5073983;28;20922;-64
2023/05/18 03:45:08;;;;;;;4.83;2.17;;;;;;;;;;5074140;28;20425;-64
2023/05/18 03:47:35;;;;;;;4.53;1.53;;;;;;;;;;5074876;28;20444;-64
2023/05/18 03:50:02;;;;;;;5.53;2.40;;;;;;;;;;5074515;28;20423;-64
2023/05/18 03:52:29;;;;;;;4.10;1.50;;;;;;;;;;5074231;28;20423;-64
2023/05/18 03:54:57;;;;;;;6.03;2.10;;;;;;;;;;5074007;28;20906;-64
2023/05/18 03:57:24;;;;;;;2.53;1.37;;;;;;;;;;5073880;28;20475;-65
2023/05/18 03:59:50;;;;;;;2.30;1.93;;;;;;;;;;5073874;28;20910;-64
2023/05/18 04:02:19;;;;;;;5.00;2.10;;;;;;;;;;5074120;28;20531;-64
2023/05/18 04:04:46;;;;;;;3.97;2.23;;;;;;;;;;5073987;28;20789;-64
2023/05/18 04:07:15;;;;;;;4.33;2.00;;;;;;;;;;5073946;28;20476;-64
2023/05/18 04:09:42;;;;;;;4.43;2.07;;;;;;;;;;5073690;28;20425;-64
2023/05/18 04:12:10;;;;;;;3.10;1.70;;;;;;;;;;5073659;28;20429;-64
2023/05/18 04:14:37;;;;;;;4.27;1.70;;;;;;;;;;5073882;28;20444;-64
2023/05/18 04:17:05;;;;;;;3.97;2.50;;;;;;;;;;5073716;28;20477;-64
2023/05/18 04:19:33;;;;;;;2.47;2.23;;;;;;;;;;5073606;28;20458;-64
2023/05/18 04:22:03;;;;;;;6.13;2.00;;;;;;;;;;5073609;28;20428;-64
2023/05/18 04:24:31;;;;;;;5.73;2.10;;;;;;;;;;5073504;28;20454;-64
2023/05/18 04:26:59;;;;;;;3.30;1.93;;;;;;;;;;5073616;28;20459;-64
2023/05/18 04:29:26;;;;;;;6.70;1.87;;;;;;;;;;5073272;28;20427;-64
2023/05/18 04:31:59;;;;;;;6.50;2.20;;;;;;;;;;5073458;28;20808;-64
2023/05/18 04:34:26;;;;;;;6.23;1.83;;;;;;;;;;5073509;28;20782;-64
2023/05/18 04:36:54;;;;;;;4.70;1.70;;;;;;;;;;5073274;28;20486;-64
2023/05/18 04:39:22;;;;;;;3.30;1.77;;;;;;;;;;5073124;28;20451;-64
2023/05/18 04:41:49;;;;;;;3.20;1.70;;;;;;;;;;5073406;28;20479;-64
2023/05/18 04:44:17;;;;;;;7.60;2.37;;;;;;;;;;5073263;28;20426;-64
2023/05/18 04:46:46;;;;;;;4.20;1.70;;;;;;;;;;5073210;28;20471;-64
2023/05/18 04:49:13;;;;;;;8.83;2.10;;;;;;;;;;5073036;28;20451;-64
2023/05/18 04:51:40;;;;;;;6.83;1.90;;;;;;;;;;5073072;28;20444;-64
2023/05/18 04:54:09;;;;;;;6.80;2.00;;;;;;;;;;5072225;28;20979;-64
2023/05/18 04:56:36;;;;;;;4.43;1.63;;;;;;;;;;5073105;28;20476;-64
2023/05/18 04:59:03;;;;;;;9.23;1.70;;;;;;;;;;5073099;28;20447;-64
2023/05/18 05:01:29;;;;;;;5.93;1.93;;;;;;;;;;5073003;28;20430;-64
2023/05/18 05:03:57;;;;;;;5.20;1.50;;;;;;;;;;5072922;28;20494;-64
2023/05/18 05:06:24;;;;;;;6.90;2.10;;;;;;;;;;5072820;28;20455;-64
2023/05/18 05:08:50;;;;;;;11.40;2.30;;;;;;;;;;5072937;28;20556;-64
2023/05/18 05:11:20;;;;;;;7.47;1.43;;;;;;;;;;5073016;28;20447;-64
2023/05/18 05:13:48;;;;;;;4.53;2.13;;;;;;;;;;5072788;28;21004;-64
2023/05/18 05:16:14;;;;;;;6.77;1.90;;;;;;;;;;5072797;28;20517;-64
2023/05/18 05:18:41;;;;;;;6.30;1.93;;;;;;;;;;5072740;28;20455;-64
2023/05/18 05:21:09;;;;;;;9.23;2.10;;;;;;;;;;5073011;28;20536;-64
2023/05/18 05:23:36;;;;;;;3.73;1.60;;;;;;;;;;5072931;28;20454;-64
2023/05/18 05:26:03;;;;;;;7.53;1.93;;;;;;;;;;5072872;28;20454;-63
2023/05/18 05:28:31;;;;;;;5.10;1.70;;;;;;;;;;5072748;28;20451;-64
2023/05/18 05:30:58;;;;;;;5.07;1.50;;;;;;;;;;5072760;28;20514;-64
2023/05/18 05:33:25;;;;;;;7.50;1.83;;;;;;;;;;5072590;28;20466;-64
2023/05/18 05:35:52;;;;;;;6.83;1.80;;;;;;;;;;5072944;28;20879;-64
2023/05/18 05:38:19;;;;;;;5.40;1.80;;;;;;;;;;5072555;28;20464;-64
2023/05/18 05:40:46;;;;;;;9.33;1.97;;;;;;;;;;5073102;28;20513;-64
2023/05/18 05:43:13;;;;;;;7.73;1.63;;;;;;;;;;5072674;28;20426;-64
2023/05/18 05:45:42;;;;;;;7.67;2.03;;;;;;;;;;5072629;28;20542;-64
2023/05/18 05:48:09;;;;;;;5.10;2.10;;;;;;;;;;5072794;28;20460;-64
2023/05/18 05:50:36;;;;;;;8.00;1.60;;;;;;;;;;5072726;28;20811;-64
2023/05/18 05:53:03;;;;;;;6.10;1.97;;;;;;;;;;5072645;28;20555;-64
2023/05/18 05:55:30;;;;;;;5.53;1.50;;;;;;;;;;5072320;28;20454;-64
2023/05/18 05:57:57;;;;;;;6.37;2.10;;;;;;;;;;5072371;28;20483;-64
2023/05/18 06:00:26;;;;;;;6.80;1.40;;;;;;;;;;5072446;28;20517;-65
2023/05/18 06:02:54;;;;;;;6.33;1.57;;;;;;;;;;5072631;28;20446;-64
2023/05/18 06:05:21;;;;;;;4.87;1.40;;;;;;;;;;5072586;28;20501;-64
2023/05/18 06:07:48;;;;;;;7.73;2.13;;;;;;;;;;5076292;28;20450;-64
2023/05/18 06:10:15;;;;;;;5.77;1.80;;;;;;;;;;5076091;28;20996;-64
2023/05/18 06:12:42;;;;;;;5.23;2.20;;;;;;;;;;5076062;28;20542;-64
2023/05/18 06:15:10;;;;;;;7.33;1.97;;;;;;;;;;5076038;28;20439;-64
2023/05/18 06:17:37;;;;;;;5.00;1.70;;;;;;;;;;5076200;28;20487;-64
2023/05/18 06:20:06;;;;;;;7.97;1.80;;;;;;;;;;5076047;28;20862;-64
2023/05/18 06:22:33;;;;;;;9.17;2.23;;;;;;;;;;5076018;28;20457;-64
2023/05/18 06:25:00;;;;;;;8.03;2.17;;;;;;;;;;5075966;28;20846;-64
2023/05/18 06:27:27;;;;;;;7.53;2.07;;;;;;;;;;5075840;28;20461;-64
2023/05/18 06:29:54;;;;;;;8.40;2.03;;;;;;;;;;5075959;28;20450;-64
2023/05/18 06:32:22;;;;;;;7.03;1.50;;;;;;;;;;5075829;28;20450;-64
2023/05/18 06:34:50;;;;;;;5.03;2.07;;;;;;;;;;5075662;28;20447;-64
2023/05/18 06:37:20;;;;;;;4.97;1.57;;;;;;;;;;5075648;28;20467;-64
2023/05/18 06:39:47;;;;;;;4.17;1.67;;;;;;;;;;5075590;28;20448;-64
2023/05/18 06:42:14;;;;;;;2.50;1.50;;;;;;;;;;5075557;28;20448;-64
2023/05/18 06:44:40;;;;;;;6.50;1.50;;;;;;;;;;5075763;28;20539;-64
2023/05/18 06:47:08;;;;;;;3.13;1.60;;;;;;;;;;5075627;28;20543;-64
2023/05/18 06:49:35;;;;;;;5.00;1.83;;;;;;;;;;5075538;28;20448;-64
2023/05/18 06:52:02;;;;;;;4.80;1.40;;;;;;;;;;5075383;28;20939;-64
2023/05/18 06:54:30;;;;;;;8.03;1.87;;;;;;;;;;5075038;28;20472;-64
2023/05/18 06:56:57;;;;;;;7.43;1.60;;;;;;;;;;5075397;28;20834;-64
2023/05/18 06:59:24;;;;;;;4.07;1.30;;;;;;;;;;5075124;28;20462;-64
2023/05/18 07:01:51;;;;;;;6.30;1.30;;;;;;;;;;5075383;28;20451;-64
2023/05/18 07:04:19;;;;;;;6.37;1.83;;;;;;;;;;5075211;28;20453;-64
2023/05/18 07:06:46;;;;;;;5.77;2.03;;;;;;;;;;5075130;28;20452;-64
2023/05/18 07:09:12;;;;;;;3.50;1.50;;;;;;;;;;5074920;28;20544;-64
2023/05/18 07:11:41;;;;;;;3.77;1.97;;;;;;;;;;5075166;28;20447;-65
2023/05/18 07:14:08;;;;;;;4.57;1.40;;;;;;;;;;5075006;28;20543;-65
2023/05/18 07:16:35;;;;;;;7.40;2.00;;;;;;;;;;5074906;28;20854;-64
2023/05/18 07:19:02;;;;;;;6.50;1.37;;;;;;;;;;5073973;28;20487;-64
2023/05/18 07:21:30;;;;;;;3.67;1.60;;;;;;;;;;5074660;28;21012;-64
2023/05/18 07:23:56;;;;;;;4.70;1.70;;;;;;;;;;5074582;28;20454;-64
2023/05/18 07:26:23;;;;;;;4.30;1.30;;;;;;;;;;5074797;28;20474;-64
2023/05/18 07:28:52;;;;;;;4.17;1.77;;;;;;;;;;5074677;28;20882;-64
2023/05/18 07:31:20;;;;;;;8.77;1.70;;;;;;;;;;5074647;28;20446;-64
2023/05/18 07:33:47;;;;;;;3.33;1.40;;;;;;;;;;5074455;28;20581;-65
2023/05/18 07:36:14;;;;;;;6.90;1.87;;;;;;;;;;5074233;28;20907;-64
2023/05/18 07:38:41;;;;;;;6.40;1.80;;;;;;;;;;5074437;28;20834;-64
2023/05/18 07:41:08;;;;;;;4.90;1.40;;;;;;;;;;5074176;28;20545;-64
2023/05/18 07:43:35;;;;;;;3.53;1.40;;;;;;;;;;5074390;28;20525;-64
2023/05/18 07:46:04;;;;;;;7.80;2.00;;;;;;;;;;5074228;28;20451;-64
2023/05/18 07:48:31;;;;;;;3.77;1.37;;;;;;;;;;5074153;28;20456;-64
2023/05/18 07:50:58;;;;;;;4.77;1.67;;;;;;;;;;5074028;28;20451;-64
2023/05/18 07:53:25;;;;;;;3.23;1.47;;;;;;;;;;5074081;28;20455;-65
2023/05/18 07:55:52;;;;;;;3.27;0.90;;;;;;;;;;5074217;28;20482;-64
2023/05/18 07:58:19;;;;;;;6.40;1.90;;;;;;;;;;5073901;28;20557;-64
2023/05/18 08:00:46;;;;;;;2.93;1.57;;;;;;;;;;5073916;28;20544;-64
2023/05/18 08:03:14;;;;;;;3.83;1.77;;;;;;;;;;5073552;28;20814;-65
2023/05/18 08:05:42;;;;;;;4.10;1.67;;;;;;;;;;5073788;28;20455;-64
2023/05/18 08:08:10;;;;;;;2.70;1.63;;;;;;;;;;5073692;28;20974;-64
2023/05/18 08:10:37;;;;;;;6.33;2.37;;;;;;;;;;5073530;28;20953;-64
2023/05/18 08:13:04;;;;;;;6.97;1.43;;;;;;;;;;5073707;28;20475;-64
2023/05/18 08:15:31;;;;;;;7.00;2.07;;;;;;;;;;5073661;28;20448;-64
2023/05/18 08:17:58;;;;;;;6.00;1.50;;;;;;;;;;5073369;28;20472;-64
2023/05/18 08:20:29;;;;;;;3.87;1.67;;;;;;;;;;5073874;28;20784;-64
2023/05/18 08:22:56;;;;;;;11.00;2.30;;;;;;;;;;5073562;28;20964;-64
2023/05/18 08:25:23;;;;;;;5.40;1.03;;;;;;;;;;5073631;28;20459;-64
2023/05/18 08:27:50;;;;;;;5.00;1.40;;;;;;;;;;5073500;28;20451;-64
2023/05/18 08:30:20;;;;;;;3.07;1.27;;;;;;;;;;5073148;28;20440;-64
2023/05/18 08:32:47;;;;;;;4.47;1.40;;;;;;;;;;5073515;28;20535;-64
2023/05/18 08:35:14;;;;;;;6.63;2.83;;;;;;;;;;5073283;28;20471;-64
2023/05/18 08:37:42;;;;;;;8.13;3.47;;;;;;;;;;5073141;28;20833;-64
2023/05/18 08:40:10;;;;;;;5.53;1.40;;;;;;;;;;5073122;28;20448;-64
2023/05/18 08:42:40;;;;;;;2.23;1.70;;;;;;;;;;5073093;28;20484;-64
2023/05/18 08:45:11;;;;;;;3.27;1.83;;;;;;;;;;5072895;28;20459;-64
2023/05/18 08:47:38;;;;;;;5.33;1.70;;;;;;;;;;5073313;28;20455;-64
2023/05/18 08:50:06;;;;;;;6.60;1.80;;;;;;;;;;5073011;28;21001;-64
2023/05/18 08:52:35;;;;;;;4.10;1.40;;;;;;;;;;5072950;28;20455;-64
2023/05/18 08:55:05;;;;;;;10.60;3.50;;;;;;;;;;5072808;28;20472;-64
2023/05/18 08:57:35;;;;;;;9.57;3.67;;;;;;;;;;5072818;28;20445;-64
2023/05/18 09:00:04;;;;;;;3.10;1.40;;;;;;;;;;5073099;28;20432;-64
2023/05/18 09:02:32;;;;;;;12.70;6.80;;;;;;;;;;5072964;28;20543;-64
2023/05/18 09:04:59;;;;;;;4.13;2.03;;;;;;;;;;5072904;28;20803;-64
2023/05/18 09:07:27;;;;;;;6.53;1.40;;;;;;;;;;5072884;28;20535;-64
2023/05/18 09:09:55;;;;;;;4.70;1.50;;;;;;;;;;5072488;28;20882;-64
2023/05/18 09:12:23;;;;;;;5.13;1.40;;;;;;;;;;5072689;28;20539;-64
2023/05/18 09:14:51;;;;;;;3.33;1.50;;;;;;;;;;5072673;28;20552;-64
2023/05/18 09:17:19;;;;;;;4.13;1.20;;;;;;;;;;5072887;28;20966;-64
2023/05/18 09:19:46;;;;;;;3.43;1.40;;;;;;;;;;5072708;28;20484;-64
2023/05/18 09:22:13;;;;;;;3.97;1.87;;;;;;;;;;5072750;28;20452;-64
2023/05/18 09:24:40;;;;;;;2.23;1.43;;;;;;;;;;5072712;28;20452;-64
2023/05/18 09:27:07;;;;;;;3.67;1.63;;;;;;;;;;5072813;28;20449;-65
2023/05/18 09:29:36;;;;;;;8.20;1.53;;;;;;;;;;5072700;28;20547;-64
2023/05/18 09:32:04;;;;;;;5.80;1.63;;;;;;;;;;5072640;28;20451;-64
2023/05/18 09:34:40;;;;;;;4.97;1.40;;;;;;;;;;5072585;28;20456;-64
2023/05/18 09:37:07;;;;;;;7.07;2.30;;;;;;;;;;5072487;28;20459;-64
2023/05/18 09:39:34;;;;;;;4.33;1.30;;;;;;;;;;5072537;28;20835;-64
2023/05/18 09:42:03;;;;;;;10.10;4.03;;;;;;;;;;5075507;28;20484;-64
2023/05/18 09:44:31;;;;;;;16.60;8.37;;;;;;;;;;5076867;28;20798;-64
2023/05/18 09:47:00;;;;;;;3.83;2.60;;;;;;;;;;5076594;28;20452;-64
2023/05/18 09:49:29;;;;;;;6.80;3.53;;;;;;;;;;5076293;28;20521;-64
2023/05/18 09:51:58;;;;;;;4.33;1.87;;;;;;;;;;5076310;28;20453;-64
2023/05/18 09:54:25;;;;;;;6.37;1.80;;;;;;;;;;5076333;28;20473;-64
2023/05/18 09:56:52;;;;;;;2.00;1.40;;;;;;;;;;5076470;28;20542;-64
2023/05/18 09:59:19;;;;;;;2.77;1.60;;;;;;;;;;5076251;28;20692;-64
2023/05/18 10:01:55;;;;;;;5.27;1.67;;;;;;;;;;5076262;28;20440;-64
2023/05/18 10:04:23;;;;;;;4.07;1.70;;;;;;;;;;5076124;28;20513;-64
2023/05/18 10:06:51;;;;;;;10.30;4.10;;;;;;;;;;5076125;28;20443;-64
2023/05/18 10:09:18;;;;;;;3.60;1.90;;;;;;;;;;5076080;28;20819;-64
2023/05/18 10:11:45;;;;;;;3.30;1.60;;;;;;;;;;5076146;28;20514;-64
2023/05/18 10:14:12;;;;;;;4.30;1.90;;;;;;;;;;5075965;28;20454;-64
2023/05/18 10:16:41;;;;;;;2.00;1.53;;;;;;;;;;5075902;28;20452;-64
2023/05/18 10:19:09;;;;;;;8.43;1.93;;;;;;;;;;5076064;28;20491;-63
2023/05/18 10:21:38;;;;;;;5.67;1.53;;;;;;;;;;5076067;28;20530;-65
2023/05/18 10:24:07;;;;;;;4.03;1.50;;;;;;;;;;5075947;28;20453;-62
2023/05/18 10:26:35;;;;;;;6.27;1.90;;;;;;;;;;5075824;28;20448;-63
2023/05/18 10:29:03;;;;;;;3.70;1.70;;;;;;;;;;5075820;28;20449;-63
2023/05/18 10:31:30;;;;;;;2.80;1.43;;;;;;;;;;5075575;28;20457;-62
2023/05/18 10:33:59;;;;;;;2.50;1.70;;;;;;;;;;5075651;28;20559;-63
2023/05/18 10:36:28;;;;;;;6.00;1.80;;;;;;;;;;5075582;28;20859;-62
2023/05/18 10:38:58;;;;;;;5.03;1.63;;;;;;;;;;5075394;28;20489;-62
2023/05/18 10:41:25;;;;;;;6.33;1.57;;;;;;;;;;5075509;28;20800;-62
2023/05/18 10:43:53;;;;;;;5.50;1.77;;;;;;;;;;5075043;28;20940;-62
2023/05/18 10:46:25;;;;;;;4.23;1.70;;;;;;;;;;5075399;28;20450;-63
2023/05/18 10:48:53;;;;;;;4.43;2.00;;;;;;;;;;5075413;28;20536;-62
2023/05/18 10:51:20;;;;;;;7.00;2.07;;;;;;;;;;5075225;28;20488;-63
2023/05/18 10:53:48;;;;;;;4.07;1.57;;;;;;;;;;5073799;28;20568;-63
2023/05/18 10:56:17;;;;;;;5.83;1.53;;;;;;;;;;5074976;28;20448;-63
2023/05/18 10:58:44;;;;;;;4.73;1.67;;;;;;;;;;5075036;28;20847;-63
2023/05/18 11:01:12;;;;;;;3.70;1.50;;;;;;;;;;5075137;28;20449;-63
2023/05/18 11:03:40;;;;;;;3.67;1.50;;;;;;;;;;5075069;28;20552;-62
2023/05/18 11:06:09;;;;;;;3.53;1.90;;;;;;;;;;5075148;28;20494;-62
2023/05/18 11:08:43;;;;;;;5.60;1.70;;;;;;;;;;5074876;28;20483;-63
2023/05/18 11:11:10;;;;;;;6.13;1.97;;;;;;;;;;5074947;28;20452;-64
2023/05/18 11:13:43;;;;;;;4.03;1.60;;;;;;;;;;5075030;28;20561;-63
2023/05/18 11:16:10;;;;;;;3.47;1.70;;;;;;;;;;5074832;28;20452;-65
2023/05/18 11:18:41;;;;;;;4.30;1.47;;;;;;;;;;5075193;28;20545;-62
2023/05/18 11:21:19;;;;;;;3.33;1.63;;;;;;;;;;5074748;28;20999;-63
2023/05/18 11:24:01;;;;;;;4.53;1.50;;;;;;;;;;5074769;28;20535;-63
2023/05/18 11:26:29;;;;;;;2.73;2.03;;;;;;;;;;5074396;28;20504;-62
2023/05/18 11:28:59;;;;;;;4.93;1.80;;;;;;;;;;5074485;28;20542;-62
2023/05/18 11:31:43;;;;;;;5.10;1.43;;;;;;;;;;5074670;28;20452;-63
2023/05/18 11:34:25;;;;;;;4.53;2.10;;;;;;;;;;5074734;28;20451;-63
2023/05/18 11:36:55;;;;;;;3.47;2.00;;;;;;;;;;5074330;28;20539;-63
2023/05/18 11:39:23;;;;;;;3.60;1.53;;;;;;;;;;5074298;28;20482;-63
2023/05/18 11:41:59;;;;;;;2.67;1.37;;;;;;;;;;5074433;28;20853;-63
2023/05/18 11:44:28;;;;;;;6.63;1.63;;;;;;;;;;5074293;28;20996;-63
2023/05/18 11:46:56;;;;;;;6.60;1.77;;;;;;;;;;5074519;28;20463;-63
2023/05/18 11:49:24;;;;;;;4.07;1.83;;;;;;;;;;5074189;28;20540;-63
2023/05/18 11:51:58;;;;;;;3.83;1.60;;;;;;;;;;5074375;28;20457;-63
2023/05/18 11:54:25;;;;;;;1.70;1.40;;;;;;;;;;5073934;28;20475;-63
2023/05/18 11:56:54;;;;;;;3.27;1.70;;;;;;;;;;5074028;28;20450;-63
2023/05/18 11:59:31;;;;;;;3.90;1.47;;;;;;;;;;5073991;28;20840;-63
2023/05/18 12:01:59;;;;;;;5.43;1.60;;;;;;;;;;5073982;28;20544;-63
2023/05/18 12:04:27;;;;;;;4.20;2.10;;;;;;;;;;5073590;28;20471;-63
2023/05/18 12:06:56;;;;;;;5.03;2.70;;;;;;;;;;5073947;28;20492;-63
2023/05/18 12:09:23;;;;;;;6.50;3.33;;;;;;;;;;5073904;28;20581;-63
2023/05/18 12:11:50;;;;;;;6.20;2.37;;;;;;;;;;5073782;28;20579;-63
2023/05/18 12:14:19;;;;;;;5.93;4.03;;;;;;;;;;5073912;28;20547;-63
2023/05/18 12:16:47;;;;;;;5.40;1.87;;;;;;;;;;5073727;28;20464;-62
2023/05/18 12:19:14;;;;;;;1.37;1.20;;;;;;;;;;5073557;28;20507;-63
2023/05/18 12:21:41;;;;;;;6.20;2.13;;;;;;;;;;5073383;28;20466;-63
2023/05/18 12:24:09;;;;;;;2.27;1.17;;;;;;;;;;5073570;28;20454;-64
2023/05/18 12:26:37;;;;;;;3.80;1.50;;;;;;;;;;5073392;28;20954;-63
2023/05/18 12:29:04;;;;;;;5.73;1.37;;;;;;;;;;5073521;28;20454;-64
2023/05/18 12:31:30;;;;;;;8.13;2.00;;;;;;;;;;5073439;28;20547;-64
2023/05/18 12:34:02;;;;;;;5.00;1.50;;;;;;;;;;5073352;28;20449;-64
2023/05/18 12:36:29;;;;;;;5.60;1.60;;;;;;;;;;5073325;28;20595;-64
2023/05/18 12:38:56;;;;;;;2.00;1.20;;;;;;;;;;5073405;28;20582;-64
2023/05/18 12:41:23;;;;;;;7.47;3.83;;;;;;;;;;5073265;28;20441;-64
2023/05/18 12:43:53;;;;;;;5.73;1.63;;;;;;;;;;5073269;28;20485;-64
2023/05/18 12:46:20;;;;;;;4.50;1.70;;;;;;;;;;5073042;28;20445;-64
2023/05/18 12:48:48;;;;;;;5.33;1.60;;;;;;;;;;5072998;28;20451;-64
2023/05/18 12:51:20;;;;;;;3.43;1.40;;;;;;;;;;5073177;28;20506;-64
2023/05/18 12:53:48;;;;;;;5.07;1.30;;;;;;;;;;5072867;28;21038;-64
2023/05/18 12:56:17;;;;;;;4.17;1.63;;;;;;;;;;5072942;28;20450;-64
2023/05/18 12:58:55;;;;;;;3.27;1.43;;;;;;;;;;5072900;28;20496;-64
2023/05/18 13:01:23;;;;;;;2.63;1.90;;;;;;;;;;5072952;28;20453;-64
2023/05/18 13:03:55;;;;;;;8.13;1.70;;;;;;;;;;5073031;28;20461;-64
2023/05/18 13:06:23;;;;;;;2.73;1.57;;;;;;;;;;5072928;28;20558;-64
2023/05/18 13:08:53;;;;;;;3.40;1.40;;;;;;;;;;5072762;28;20987;-64
2023/05/18 13:11:24;;;;;;;3.70;1.40;;;;;;;;;;5072925;28;20461;-64
2023/05/18 13:13:58;;;;;;;4.10;1.47;;;;;;;;;;5072625;28;20457;-64
2023/05/18 13:16:25;;;;;;;6.00;1.53;;;;;;;;;;5072152;28;20819;-64
2023/05/18 13:18:56;;;;;;;2.50;1.30;;;;;;;;;;5072557;28;20458;-64
2023/05/18 13:21:24;;;;;;;1.77;1.03;;;;;;;;;;5072678;28;20547;-64
2023/05/18 13:23:51;;;;;;;2.43;1.60;;;;;;;;;;5072653;28;20471;-64
2023/05/18 13:26:18;;;;;;;4.40;1.40;;;;;;;;;;5072499;28;20782;-64
2023/05/18 13:28:47;;;;;;;3.67;1.63;;;;;;;;;;5072575;28;20461;-64
2023/05/18 13:31:14;;;;;;;4.13;1.53;;;;;;;;;;5072704;28;20948;-64
2023/05/18 13:33:41;;;;;;;4.10;2.40;;;;;;;;;;5072590;28;20855;-64
2023/05/18 13:36:08;;;;;;;3.37;1.90;;;;;;;;;;5072459;28;20853;-64
2023/05/18 13:38:37;;;;;;;5.83;2.17;;;;;;;;;;5072185;28;20477;-64
2023/05/18 13:41:04;;;;;;;3.83;1.80;;;;;;;;;;5072128;28;21100;-64
2023/05/18 13:43:31;;;;;;;5.07;2.03;;;;;;;;;;5072577;28;20628;-65
2023/05/18 13:45:58;;;;;;;1.60;1.50;;;;;;;;;;5072513;28;20447;-64
2023/05/18 13:48:26;;;;;;;2.50;1.77;;;;;;;;;;5072463;28;20453;-64
2023/05/18 13:50:53;;;;;;;2.90;1.40;;;;;;;;;;5072433;28;20452;-63
2023/05/18 13:53:20;;;;;;;4.33;1.30;;;;;;;;;;5072104;28;20453;-64
2023/05/18 13:55:48;;;;;;;4.20;1.20;;;;;;;;;;5072196;28;20553;-64
2023/05/18 13:58:15;;;;;;;5.80;1.60;;;;;;;;;;5072254;28;20940;-64
2023/05/18 14:00:42;;;;;;;3.17;1.10;;;;;;;;;;5072191;28;20841;-64
2023/05/18 14:03:09;;;;;;;2.20;1.20;;;;;;;;;;5072173;28;20842;-64
2023/05/18 14:05:36;;;;;;;2.90;1.43;;;;;;;;;;5072123;28;20836;-63
2023/05/18 14:08:03;;;;;;;2.37;1.33;;;;;;;;;;5072053;28;20456;-64
2023/05/18 14:10:30;;;;;;;2.17;1.30;;;;;;;;;;5072297;28;20553;-64
2023/05/18 14:12:58;;;;;;;2.60;1.30;;;;;;;;;;5072339;28;20457;-63
2023/05/18 14:15:25;;;;;;;5.23;1.70;;;;;;;;;;5072186;28;20809;-64
2023/05/18 14:17:53;;;;;;;2.37;1.23;;;;;;;;;;5072048;28;20455;-63
2023/05/18 14:20:20;;;;;;;2.60;1.33;;;;;;;;;;5071912;28;20489;-63
2023/05/18 14:22:47;;;;;;;4.50;1.40;;;;;;;;;;5071926;28;20927;-64
2023/05/18 14:25:14;;;;;;;3.50;1.80;;;;;;;;;;5072135;28;20972;-63
2023/05/18 14:27:41;;;;;;;2.60;1.60;;;;;;;;;;5074360;28;20924;-63
2023/05/18 14:30:09;;;;;;;5.30;1.47;;;;;;;;;;5075685;28;20456;-63
2023/05/18 14:32:36;;;;;;;7.77;1.53;;;;;;;;;;5075556;28;20535;-63
2023/05/18 14:35:03;;;;;;;4.60;1.20;;;;;;;;;;5075401;28;20539;-64
2023/05/18 14:37:31;;;;;;;3.20;1.53;;;;;;;;;;5075675;28;20548;-64
2023/05/18 14:39:58;;;;;;;2.23;1.30;;;;;;;;;;5075314;28;20825;-64
2023/05/18 14:42:25;;;;;;;2.77;1.73;;;;;;;;;;5075459;28;20549;-64
2023/05/18 14:44:52;;;;;;;8.90;1.23;;;;;;;;;;5075441;28;20457;-63
2023/05/18 14:47:21;;;;;;;3.23;1.27;;;;;;;;;;5075273;28;20459;-63